Aeroporto :
LOGIN :

Iscrizione | Disclaimer

   EN    FR    IT 

 










Sommario :    VFR   VFR Marginale   IFR   IFR Intensivo   IFR Molto Intensivo
Visibilità : 
Base nubi : 
>= 8 km
>= 3000ft
5 / 8 km
1000 / 3000 ft
1500m / 5 km
500 / 1000 ft
800 / 1500m
200 / 500 ft
< 800m
< 200 ft
Simboli :   Temporali  Nebbia  Neve Forte  Precipitazioni Forti  Vento > 20 kt
SIGMETs :   Varie  Temporali  Ghiacco  Turbolenza  Onda orograficha  Ceneri Vulcaniche






- Altitudine del aeroporto : 989 ft
- Codice IATA : TRN


LIMF - Torino Caselle

ULTIMO METAR :
  • 231320Z 19004KT 150V230 8000 NSC 15/06 Q1024

METARs OBSOLETI :
  • 231250Z 19004KT 140V210 8000 NSC 14/06 Q1025
  • 231220Z 14003KT 070V210 6000 NSC 13/06 Q1025
  • 231150Z 10003KT 040V140 5000 BR NSC 12/04 Q1026
  • 231120Z VRB02KT 5000 BR NSC 12/03 Q1026

TAF TAF LIMF
Valido dal 23 a 12 ore il 24 a 12 ore UTC


231100Z 2312/2412 VRB05KT 5000 BR NSC
BECMG 2322/2324 2500 BR
PROB30
TEMPO 2400/2406 1200 BCFG



MetMap, La meteo Aeronautica in un colpo d'occhio ! - Copyright ORBIFLY Dicembre 2007 - Disclaimer

ORBIFLY MET'MAP TEAM :

Programmazione e sviluppo : Alexandra Zaïnal
Concezione : Baudouin d'Aumeries
Aiuto per la programmazione : Marc-Olivier Méhu
Supporto tecnico e logistico : Manuel Goepfert
Aiuto per la traduzione : Arnaldo La Scala

Contatto : metmap@orbifly.com




FONTI E CREDITI :

   NOAA